Trieste–Friuli Venezia Giulia Airport

LIPQ · Friuli Venezia Giulia, Italy

METAR history LIPQ · Trieste–Friuli Venezia Giulia Airport

Below you see METARs of the last few days. Select a year to browse through older METARs, from the year 2007 onwards.

November 27, 2022

Time Code Weather Temp. Visibility Ceiling Wind METAR/SPECI
16:50
V
9 °C 10 km+ - 100° 100° 4 kt METAR LIPQ 271550Z AUTO 10004KT 9999 NCD 09/00 Q1025
16:20
V
9 °C 10 km+ - 110° 110° 6 kt METAR LIPQ 271520Z AUTO 11006KT 9999 NCD 09/01 Q1025
15:50
V
10 °C 10 km+ - 120° 120° 7 kt METAR LIPQ 271450Z AUTO 12007KT 9999 NCD 10/02 Q1025
15:20
V
12 °C 10 km+ - 110° 110° 8 kt METAR LIPQ 271420Z AUTO 11008KT 9999 NCD 12/01 Q1025
14:50
V
12 °C 10 km+ - 110° 110° 10 kt METAR LIPQ 271350Z AUTO 11010KT 9999 NCD 12/01 Q1025
14:20
V
13 °C 10 km+ - 110° 110° 12 kt METAR LIPQ 271320Z AUTO 11012KT 9999 NCD 13/01 Q1025
13:50
V
13 °C 10 km+ - 100° 100° 11 kt METAR LIPQ 271250Z AUTO 10011KT 9999 NCD 13/00 Q1026
13:20
V
13 °C 10 km+ - 090° 090° 9 kt METAR LIPQ 271220Z AUTO 09009KT 040V120 9999 NCD 13/00 Q1026
12:50
V
13 °C 10 km+ - 080° 080° 9 kt METAR LIPQ 271150Z AUTO 08009KT 9999 NCD 13/M00 Q1027
12:20
V
13 °C 10 km+ - 080° 080° 10 kt METAR LIPQ 271120Z AUTO 08010KT 040V100 9999 NCD 13/00 Q1027
11:50
V
13 °C 10 km+ - 070° 070° 8 kt METAR LIPQ 271050Z AUTO 07008KT 9999 NCD 13/01 Q1028
11:20
V
13 °C 10 km+ - 070° 070° 8 kt METAR LIPQ 271020Z AUTO 07008KT 040V100 9999 NCD 13/02 Q1028
10:50
V
12 °C 10 km+ - 060° 060° 4 kt METAR LIPQ 270950Z AUTO 06004KT 340V130 9999 NCD 12/04 Q1028
10:20
V
10 °C 10 km+ - 360° 360° 6 kt METAR LIPQ 270920Z AUTO 36006KT 9999 NCD 10/05 Q1029
09:50
V
9 °C 10 km+ - 360° 360° 5 kt METAR LIPQ 270850Z AUTO 36005KT 9999 NCD 09/04 Q1028
09:20
V
7 °C 10 km+ - 340° 340° 4 kt METAR LIPQ 270820Z AUTO 34004KT 9999 NCD 07/03 Q1028
08:50
V
5 °C 10 km+ - 310° 310° 3 kt METAR LIPQ 270750Z AUTO 31003KT 9999 NCD 05/03 Q1029
08:20
V
3 °C 10 km+ - 330° 330° 4 kt METAR LIPQ 270720Z AUTO 33004KT 9999 NCD 03/02 Q1029
07:50
V
2 °C 10 km+ - 010° 010° 2 kt METAR LIPQ 270650Z AUTO 01002KT 9999 NCD 02/01 Q1029
07:20
V
3 °C 10 km+ - 010° 010° 3 kt METAR LIPQ 270620Z AUTO 01003KT 9999 NCD 03/01 Q1028
06:50
V
3 °C 10 km+ - 330° 330° 4 kt METAR LIPQ 270550Z AUTO 33004KT 230V030 9999 NCD 03/01 Q1028
06:20
V
2 °C 10 km+ - 360° 360° 4 kt METAR LIPQ 270520Z AUTO 36004KT 9999 NCD 02/01 Q1028
05:50
V
2 °C 10 km+ - 360° 360° 2 kt METAR LIPQ 270450Z AUTO 36002KT 9999 NCD 02/01 Q1028
05:20
V
1 °C 10 km+ - 330° 330° 3 kt METAR LIPQ 270420Z AUTO 33003KT 9999 NCD 01/00 Q1028
04:50
V
3 °C 10 km+ - 330° 330° 4 kt METAR LIPQ 270350Z AUTO 33004KT 9999 NCD 03/01 Q1028
04:20
V
3 °C 10 km+ - 360° 360° 3 kt METAR LIPQ 270320Z AUTO 36003KT 9999 NCD 03/01 Q1028
03:50
V
4 °C 10 km+ - 020° 020° 5 kt METAR LIPQ 270250Z AUTO 02005KT 9999 NCD 04/02 Q1028
03:20
V
6 °C 10 km+ - 040° 040° 4 kt METAR LIPQ 270220Z AUTO 04004KT 9999 NCD 06/02 Q1028
02:50
V
4 °C 10 km+ - 010° 010° 6 kt METAR LIPQ 270150Z AUTO 01006KT 9999 NCD 04/01 Q1029
02:20
V
5 °C 10 km+ - 020° 020° 5 kt METAR LIPQ 270120Z AUTO 02005KT 9999 NCD 05/02 Q1029
01:50
V
5 °C 10 km+ - 350° 350° 5 kt METAR LIPQ 270050Z AUTO 35005KT 9999 NCD 05/02 Q1029
01:20
V
5 °C 10 km+ - 010° 010° 5 kt METAR LIPQ 270020Z AUTO 01005KT 9999 NCD 05/02 Q1029
00:50
V
6 °C 10 km+ - 010° 010° 5 kt METAR LIPQ 262350Z AUTO 01005KT 9999 NCD 06/02 Q1029
00:20
V
6 °C 10 km+ - 360° 360° 5 kt METAR LIPQ 262320Z AUTO 36005KT 9999 NCD 06/02 Q1029

November 26, 2022

Time Code Weather Temp. Visibility Ceiling Wind METAR/SPECI
23:50
V
6 °C 10 km+ - 020° 020° 5 kt METAR LIPQ 262250Z AUTO 02005KT 9999 NCD 06/02 Q1028
23:20
V
6 °C 10 km+ - 030° 030° 4 kt METAR LIPQ 262220Z AUTO 03004KT 9999 NCD 06/02 Q1028
22:50
V
6 °C 10 km+ - 020° 020° 5 kt METAR LIPQ 262150Z AUTO 02005KT 9999 NCD 06/02 Q1028
22:20
V
6 °C 10 km+ - 010° 010° 5 kt METAR LIPQ 262120Z AUTO 01005KT 9999 NCD 06/02 Q1028
21:50
V
7 °C 10 km+ - 010° 010° 4 kt METAR LIPQ 262050Z AUTO 01004KT 330V070 9999 NCD 07/02 Q1028
21:20
V
7 °C 10 km+ - 350° 350° 6 kt METAR LIPQ 262020Z AUTO 35006KT 9999 NCD 07/02 Q1028
20:50
V
9 °C 10 km+ - 040° 040° 5 kt METAR LIPQ 261950Z AUTO 04005KT 9999 NCD 09/02 Q1028
20:20
V
9 °C 10 km+ - 050° 050° 4 kt METAR LIPQ 261920Z AUTO 05004KT 010V090 9999 NCD 09/02 Q1028
19:50
V
8 °C 10 km+ - 330° 330° 5 kt METAR LIPQ 261850Z AUTO 33005KT 9999 NCD 08/02 Q1028
19:20
V
10 °C 10 km+ - 060° 060° 4 kt METAR LIPQ 261820Z AUTO 06004KT 9999 NCD 10/01 Q1028
18:50
V
10 °C 10 km+ - 080° 080° 5 kt METAR LIPQ 261750Z AUTO 08005KT 9999 NCD 10/01 Q1027
18:20
V
10 °C 10 km+ - 050° 050° 4 kt METAR LIPQ 261720Z AUTO 05004KT 9999 NCD 10/01 Q1027
17:50
V
8 °C 10 km+ - 100° 100° 4 kt METAR LIPQ 261650Z AUTO 10004KT 060V120 9999 NCD 08/02 Q1027
17:20
V
10 °C 10 km+ - Var Var 2 kt METAR LIPQ 261620Z AUTO VRB02KT 9999 NCD 10/02 Q1027
16:50
V
11 °C 10 km+ - Var Var 2 kt METAR LIPQ 261550Z AUTO VRB02KT 9999 NCD 11/01 Q1026
16:20
V
11 °C 10 km+ - 110° 110° 5 kt METAR LIPQ 261520Z AUTO 11005KT 9999 NCD 11/02 Q1026
15:50
V
12 °C 10 km+ - 130° 130° 6 kt METAR LIPQ 261450Z AUTO 13006KT 9999 NCD 12/03 Q1026
15:20
V
13 °C 10 km+ - 120° 120° 7 kt METAR LIPQ 261420Z AUTO 12007KT 9999 NCD 13/04 Q1026
14:50
V
15 °C 10 km+ - 120° 120° 5 kt METAR LIPQ 261350Z AUTO 12005KT 9999 FEW120/// 15/04 Q1026
14:20
V
14 °C 10 km+ - 110° 110° 5 kt METAR LIPQ 261320Z AUTO 11005KT 9999 SCT120/// 14/05 Q1026
13:50
V
15 °C 10 km+ - 120° 120° 8 kt METAR LIPQ 261250Z AUTO 12008KT 9999 SCT140/// 15/04 Q1026
13:20
V
14 °C 10 km+ - 110° 110° 10 kt METAR LIPQ 261220Z AUTO 11010KT 9999 SCT200/// 14/03 Q1026
12:50
V
14 °C 10 km+ - 110° 110° 9 kt METAR LIPQ 261150Z AUTO 11009KT 9999 NCD 14/04 Q1026
12:20
V
13 °C 10 km+ - 280° 280° 3 kt METAR LIPQ 261120Z AUTO 28003KT 9999 FEW230/// 13/07 Q1026
11:50
V
13 °C 10 km+ - 340° 340° 3 kt METAR LIPQ 261050Z AUTO 34003KT 300V010 9999 FEW160/// 13/07 Q1026
11:20
V
11 °C 10 km+ - 020° 020° 2 kt METAR LIPQ 261020Z AUTO 02002KT 9999 NCD 11/07 Q1026
10:50
V
10 °C 10 km+ - 020° 020° 3 kt METAR LIPQ 260950Z AUTO 02003KT 9999 NCD 10/06 Q1026
10:20
V
10 °C 10 km+ - Var Var 2 kt METAR LIPQ 260920Z AUTO VRB02KT 9999 FEW120/// 10/06 Q1025
09:50
V
9 °C 10 km+ - 010° 010° 4 kt METAR LIPQ 260850Z AUTO 01004KT 9999 FEW130/// 09/05 Q1025
09:20
V
8 °C 10 km+ - 360° 360° 2 kt METAR LIPQ 260820Z AUTO 36002KT 9999 FEW140/// 08/06 Q1025
08:50
V
7 °C 10 km+ - 360° 360° 3 kt METAR LIPQ 260750Z AUTO 36003KT 310V020 9999 SCT140/// 07/06 Q1025
08:20
V
6 °C 10 km+ 19,000 ft 360° 360° 4 kt METAR LIPQ 260720Z AUTO 36004KT 9999 BKN190/// 06/05 Q1024
07:50
V
5 °C 10 km+ 14,000 ft 030° 030° 4 kt METAR LIPQ 260650Z AUTO 03004KT 9999 BKN140/// 05/04 Q1024
07:20
V
5 °C 10 km+ 14,000 ft Var Var 2 kt METAR LIPQ 260620Z AUTO VRB02KT 9999 BKN140/// 05/03 Q1023
06:50
V
6 °C 10 km+ - 030° 030° 5 kt METAR LIPQ 260550Z AUTO 03005KT 9999 SCT140/// 06/04 Q1023
06:20
V
6 °C 10 km+ - 010° 010° 4 kt METAR LIPQ 260520Z AUTO 01004KT 9999 NCD 06/04 Q1023
05:50
V
6 °C 10 km+ - 020° 020° 4 kt METAR LIPQ 260450Z AUTO 02004KT 9999 FEW230/// 06/04 Q1022
05:20
V
7 °C 10 km+ 23,000 ft 050° 050° 5 kt METAR LIPQ 260420Z AUTO 05005KT 9999 FEW140/// BKN230/// 07/05 Q1022
04:50
V
7 °C 10 km+ - 010° 010° 5 kt METAR LIPQ 260350Z AUTO 01005KT 9999 NCD 07/05 Q1022
04:20
V
6 °C 10 km+ 22,000 ft 010° 010° 4 kt METAR LIPQ 260320Z AUTO 01004KT 9999 BKN220/// 06/05 Q1022
03:50
V
6 °C 10 km+ 22,000 ft 350° 350° 4 kt METAR LIPQ 260250Z AUTO 35004KT 9999 BKN220/// 06/06 Q1022
03:20
V
6 °C 10 km+ 22,000 ft 360° 360° 3 kt METAR LIPQ 260220Z AUTO 36003KT 9999 BKN220/// 06/06 Q1021
02:50
V
6 °C 10 km+ 22,000 ft Var Var 1 kt METAR LIPQ 260150Z AUTO VRB01KT 9999 BKN220/// 06/05 Q1021
02:20
V
7 °C 10 km+ 23,000 ft 040° 040° 3 kt METAR LIPQ 260120Z AUTO 04003KT 9999 OVC230/// 07/06 Q1021
01:50
V
7 °C 10 km+ 24,000 ft 020° 020° 4 kt METAR LIPQ 260050Z AUTO 02004KT 9999 BKN240/// 07/06 Q1021
01:20
V
6 °C 10 km+ 23,000 ft 020° 020° 4 kt METAR LIPQ 260020Z AUTO 02004KT 9999 SCT150/// BKN230/// 06/06 Q1021
00:50
V
7 °C 10 km+ 15,000 ft Var Var 2 kt METAR LIPQ 252350Z AUTO VRB02KT 9999 BKN150/// BKN240/// 07/06 Q1021
00:20
V
8 °C 10 km+ 15,000 ft 010° 010° 2 kt METAR LIPQ 252320Z AUTO 01002KT 9999 BKN150/// BKN240/// 08/06 Q1021

November 25, 2022

Time Code Weather Temp. Visibility Ceiling Wind METAR/SPECI
23:50
V
8 °C 10 km+ 24,000 ft 020° 020° 4 kt METAR LIPQ 252250Z AUTO 02004KT 9999 OVC240/// 08/07 Q1021
23:20
V
7 °C 10 km+ - 010° 010° 6 kt METAR LIPQ 252220Z AUTO 01006KT 9999 FEW240/// 07/06 Q1021
22:50
V
7 °C 10 km+ - 020° 020° 4 kt METAR LIPQ 252150Z AUTO 02004KT 360V060 9999 NCD 07/07 Q1021
22:20
V
7 °C 10 km+ - Var Var 1 kt METAR LIPQ 252120Z AUTO VRB01KT 9999 NCD 07/06 Q1021
21:50
V
8 °C 10 km+ - 030° 030° 4 kt METAR LIPQ 252050Z AUTO 03004KT 9999 NCD 08/07 Q1020
21:20
V
8 °C 10 km+ - 360° 360° 3 kt METAR LIPQ 252020Z AUTO 36003KT 9999 FEW057/// 08/07 Q1020
20:50
V
9 °C 10 km+ 5,500 ft 040° 040° 2 kt METAR LIPQ 251950Z AUTO 04002KT 9999 BKN055/// 09/07 Q1020
20:20
V
9 °C 10 km+ 13,000 ft 010° 010° 4 kt METAR LIPQ 251920Z AUTO 01004KT 9999 SCT056/// BKN130/// 09/07 Q1020
19:50
V
10 °C 10 km+ - 020° 020° 4 kt METAR LIPQ 251850Z AUTO 02004KT 9999 FEW028/// 10/07 Q1020
19:20
V
10 °C 10 km+ 3,300 ft Var Var 2 kt METAR LIPQ 251820Z AUTO VRB02KT 9999 FEW026/// BKN033/// 10/08 Q1020
18:50
M
10 °C 10 km+ 2,700 ft 010° 010° 3 kt METAR LIPQ 251750Z AUTO 01003KT 9999 BKN027/// BKN068/// 10/08 Q1019
18:20
V
11 °C 10 km+ 3,200 ft 360° 360° 3 kt METAR LIPQ 251720Z AUTO 36003KT 9999 BKN032/// BKN065/// 11/08 Q1019
17:50
V
11 °C 10 km+ 3,100 ft 060° 060° 2 kt METAR LIPQ 251650Z AUTO 06002KT 9999 BKN031/// BKN140/// 11/08 Q1019
17:20
V
12 °C 10 km+ 14,000 ft 040° 040° 3 kt METAR LIPQ 251620Z AUTO 04003KT 9999 OVC140/// 12/08 Q1019
16:50
V
12 °C 10 km+ 14,000 ft 040° 040° 5 kt METAR LIPQ 251550Z AUTO 04005KT 9999 FEW051/// OVC140/// 12/09 Q1019
16:20
V
13 °C 10 km+ 15,000 ft 040° 040° 6 kt METAR LIPQ 251520Z AUTO 04006KT 9999 FEW035/// SCT051/// BKN150/// 13/09 Q1019
15:50
V
13 °C 10 km+ 15,000 ft 030° 030° 4 kt METAR LIPQ 251450Z AUTO 03004KT 9999 OVC150/// 13/09 Q1019
15:20
V
14 °C 10 km+ 15,000 ft 020° 020° 4 kt METAR LIPQ 251420Z AUTO 02004KT 9999 OVC150/// 14/09 Q1019
14:50
V
14 °C 10 km+ 15,000 ft 020° 020° 4 kt METAR LIPQ 251350Z AUTO 02004KT 9999 BKN150/// 14/09 Q1018
14:20
V
14 °C 10 km+ 15,000 ft 010° 010° 5 kt METAR LIPQ 251320Z AUTO 01005KT 9999 SCT045/// BKN150/// 14/09 Q1018
13:50
V
14 °C 10 km+ 4,500 ft 010° 010° 4 kt METAR LIPQ 251250Z AUTO 01004KT 9999 BKN045/// BKN160/// 14/10 Q1019
13:20
V
14 °C 10 km+ 16,000 ft 010° 010° 4 kt METAR LIPQ 251220Z AUTO 01004KT 9999 BKN160/// 14/09 Q1019
12:50
V
14 °C 10 km+ 16,000 ft 020° 020° 3 kt METAR LIPQ 251150Z AUTO 02003KT 350V050 9999 FEW039/// BKN160/// 14/09 Q1019
12:20
M
13 °C 10 km+ 2,500 ft 350° 350° 3 kt METAR LIPQ 251120Z AUTO 35003KT 9999 BKN025/// BKN160/// 13/09 Q1019
11:50
M
13 °C 10 km+ 2,700 ft 020° 020° 2 kt METAR LIPQ 251050Z AUTO 02002KT 9999 BKN027/// BKN160/// 13/09 Q1019
11:20
V
13 °C 10 km+ 3,000 ft 030° 030° 3 kt METAR LIPQ 251020Z AUTO 03003KT 360V070 9999 BKN030/// BKN160/// 13/09 Q1019
10:50
V
13 °C 10 km+ 17,000 ft Var Var 1 kt METAR LIPQ 250950Z AUTO VRB01KT 9999 SCT031/// BKN170/// 13/09 Q1020

We and third parties follow your internet behavior on our website with cookies. If you continue, we assume you agree with our cookie policy.